Terminal Aerodrome Forecast
Issued by NWS Melbourne, FL

Home | Current Version | Previous Version | Text Only | Print | Product List | Glossary On
Versions: 1 2 3 4 5 6 7 8 9 10 11 12 13 14 15 16 17 18 19 20
000
FTUS42 KMLB 240632 AAA
TAFMLB
TAF AMD
KMLB 240632Z 2407/2506 25004KT P6SM VCSH SCT025 BKN050
      TEMPO 2407/2408 29010KT 2SM SHRA BKN025
     FM241500 23007KT P6SM VCSH BKN035
     FM242100 17007KT P6SM VCTS SCT035CB BKN050
     FM250200 26005KT P6SM SCT050 BKN250=

USA.gov is the U.S. government's official web portal to all federal, state and local government web resources and services.